createdAt,value
2018-12-11T00:00:24.894Z,5.60
2018-12-11T00:01:24.904Z,5.60
2018-12-11T00:02:24.827Z,5.73
2018-12-11T00:03:25.719Z,5.73
2018-12-11T00:04:25.719Z,5.77
2018-12-11T00:05:24.760Z,5.69
2018-12-11T00:06:24.773Z,5.67
2018-12-11T00:07:24.653Z,5.82
2018-12-11T00:08:24.621Z,5.80
2018-12-11T00:09:24.590Z,5.75
2018-12-11T00:10:24.552Z,5.78
2018-12-11T00:11:24.567Z,5.82
2018-12-11T00:12:25.257Z,5.81
2018-12-11T00:13:24.456Z,5.77
2018-12-11T00:14:25.216Z,5.84
2018-12-11T00:15:24.396Z,5.80
2018-12-11T00:16:24.770Z,5.80
2018-12-11T00:17:24.373Z,5.77
2018-12-11T00:18:24.282Z,5.84
2018-12-11T00:19:24.251Z,5.77
2018-12-11T00:20:24.217Z,5.78
2018-12-11T00:21:24.223Z,5.78
2018-12-11T00:22:24.201Z,5.77
2018-12-11T00:23:24.763Z,5.81
2018-12-11T00:24:24.121Z,5.82
2018-12-11T00:25:24.051Z,5.80
2018-12-11T00:26:24.016Z,5.77
2018-12-11T00:27:24.030Z,5.82
2018-12-11T00:28:23.951Z,5.78
2018-12-11T00:29:23.912Z,5.82
2018-12-11T00:30:24.720Z,5.82
2018-12-11T00:31:24.271Z,5.82
2018-12-11T00:32:23.820Z,5.81
2018-12-11T00:33:23.783Z,5.80
2018-12-11T00:34:23.790Z,5.81
2018-12-11T00:35:23.713Z,5.78
2018-12-11T00:36:24.217Z,5.80
2018-12-11T00:37:23.698Z,5.80
2018-12-11T00:38:23.609Z,5.82
2018-12-11T00:39:23.575Z,5.78
2018-12-11T00:40:23.552Z,5.78
2018-12-11T00:41:24.233Z,5.81
2018-12-11T00:42:23.534Z,5.81
2018-12-11T00:43:23.447Z,5.77
2018-12-11T00:44:24.295Z,5.80
2018-12-11T00:45:23.375Z,5.78
2018-12-11T00:46:23.394Z,5.80
2018-12-11T00:47:23.317Z,5.80
2018-12-11T00:48:24.260Z,5.81
2018-12-11T00:49:23.242Z,5.80
2018-12-11T00:50:23.214Z,5.78
2018-12-11T00:51:23.223Z,5.81
2018-12-11T00:52:23.144Z,5.77
2018-12-11T00:53:23.154Z,5.73
2018-12-11T00:54:23.720Z,5.77
2018-12-11T00:55:23.725Z,5.72
2018-12-11T00:56:23.044Z,5.69
2018-12-11T00:57:22.972Z,5.63
2018-12-11T00:58:22.990Z,5.72
2018-12-11T00:59:22.907Z,5.69
2018-12-11T01:00:22.916Z,5.72
2018-12-11T01:01:22.840Z,5.66
2018-12-11T01:02:23.723Z,5.73
2018-12-11T01:03:22.829Z,5.73
2018-12-11T01:04:22.736Z,5.67
2018-12-11T01:05:22.712Z,5.72
2018-12-11T01:06:23.225Z,5.69
2018-12-11T01:07:23.256Z,5.64
2018-12-11T01:08:22.775Z,5.66
2018-12-11T01:09:22.565Z,5.63
2018-12-11T01:10:22.539Z,5.60
2018-12-11T01:11:22.551Z,5.69
2018-12-11T01:12:22.487Z,5.63
2018-12-11T01:13:22.778Z,5.67
2018-12-11T01:14:22.404Z,5.64
2018-12-11T01:15:23.226Z,5.62
2018-12-11T01:16:22.332Z,5.62
2018-12-11T01:17:22.352Z,5.59
2018-12-11T01:18:22.273Z,5.62
2018-12-11T01:19:22.307Z,5.60
2018-12-11T01:20:22.203Z,5.67
2018-12-11T01:21:22.186Z,5.55
2018-12-11T01:22:22.133Z,5.60
2018-12-11T01:23:22.735Z,5.57
2018-12-11T01:24:22.281Z,5.62
2018-12-11T01:25:22.046Z,5.59
2018-12-11T01:26:22.039Z,5.60
2018-12-11T01:27:22.034Z,5.63
2018-12-11T01:28:21.922Z,5.63
2018-12-11T01:29:22.729Z,5.62
2018-12-11T01:30:21.862Z,5.64
2018-12-11T01:31:22.721Z,5.64
2018-12-11T01:32:22.297Z,5.64
2018-12-11T01:33:21.754Z,5.63
2018-12-11T01:34:21.719Z,5.64
2018-12-11T01:35:21.743Z,5.62
2018-12-11T01:36:21.661Z,5.77
2018-12-11T01:37:21.621Z,5.62
2018-12-11T01:38:21.589Z,5.63
2018-12-11T01:39:21.555Z,5.78
2018-12-11T01:40:21.558Z,5.73
2018-12-11T01:41:21.491Z,5.78
2018-12-11T01:42:21.450Z,5.70
2018-12-11T01:43:21.464Z,5.80
2018-12-11T01:44:21.383Z,5.73
2018-12-11T01:45:21.394Z,5.66
2018-12-11T01:46:21.321Z,5.67
2018-12-11T01:47:21.290Z,5.69
2018-12-11T01:48:21.260Z,5.69
2018-12-11T01:49:21.267Z,5.70
2018-12-11T01:50:21.181Z,5.63
2018-12-11T01:51:21.195Z,5.66
2018-12-11T01:52:21.113Z,5.59
2018-12-11T01:53:21.089Z,5.62
2018-12-11T01:54:21.051Z,5.63
2018-12-11T01:55:21.014Z,5.60
2018-12-11T01:56:21.282Z,5.59
2018-12-11T01:57:20.946Z,5.59
2018-12-11T01:58:20.925Z,5.69
2018-12-11T01:59:20.928Z,5.62
2018-12-11T02:00:20.841Z,5.55
2018-12-11T02:01:20.821Z,5.55
2018-12-11T02:02:21.276Z,5.57
2018-12-11T02:03:20.747Z,5.55
2018-12-11T02:04:20.705Z,5.54
2018-12-11T02:05:21.230Z,5.62
2018-12-11T02:06:21.234Z,5.60
2018-12-11T02:07:20.782Z,5.57
2018-12-11T02:08:20.582Z,5.57
2018-12-11T02:09:20.590Z,5.63
2018-12-11T02:10:20.505Z,5.66
2018-12-11T02:11:20.471Z,5.73
2018-12-11T02:12:20.452Z,5.78
2018-12-11T02:13:20.401Z,5.73
2018-12-11T02:14:20.428Z,5.73
2018-12-11T02:15:20.336Z,5.77
2018-12-11T02:16:20.303Z,5.64
2018-12-11T02:17:20.319Z,5.78
2018-12-11T02:18:20.244Z,5.73
2018-12-11T02:19:20.258Z,5.80
2018-12-11T02:20:20.168Z,5.85
2018-12-11T02:21:20.137Z,5.78
2018-12-11T02:22:20.103Z,5.82
2018-12-11T02:23:20.732Z,5.78
2018-12-11T02:24:20.081Z,5.82
2018-12-11T02:25:19.998Z,5.78
2018-12-11T02:26:19.966Z,5.87
2018-12-11T02:27:19.939Z,5.81
2018-12-11T02:28:19.899Z,5.73
2018-12-11T02:29:19.909Z,5.87
2018-12-11T02:30:19.832Z,5.81
2018-12-11T02:31:20.288Z,5.88
2018-12-11T02:32:20.735Z,5.87
2018-12-11T02:33:20.231Z,5.91
2018-12-11T02:34:19.699Z,5.84
2018-12-11T02:35:20.264Z,5.98
2018-12-11T02:36:19.797Z,5.99
2018-12-11T02:37:20.244Z,5.88
2018-12-11T02:38:19.569Z,5.95
2018-12-11T02:39:19.578Z,5.95
2018-12-11T02:40:19.537Z,5.99
2018-12-11T02:41:19.464Z,5.99
2018-12-11T02:42:19.528Z,6.00
2018-12-11T02:43:20.236Z,6.00
2018-12-11T02:44:19.506Z,6.03
2018-12-11T02:45:19.328Z,5.99
2018-12-11T02:46:20.235Z,6.07
2018-12-11T02:47:20.244Z,6.02
2018-12-11T02:48:19.230Z,6.06
2018-12-11T02:49:19.295Z,6.03
2018-12-11T02:50:19.218Z,6.05
2018-12-11T02:51:19.167Z,6.13
2018-12-11T02:52:19.095Z,6.05
2018-12-11T02:53:19.102Z,6.09
2018-12-11T02:54:19.023Z,6.06
2018-12-11T02:55:19.044Z,6.13
2018-12-11T02:56:19.743Z,6.07
2018-12-11T02:57:18.927Z,6.06
2018-12-11T02:58:18.949Z,6.00
2018-12-11T02:59:18.858Z,6.09
2018-12-11T03:00:19.738Z,6.13
2018-12-11T03:01:18.795Z,6.07
2018-12-11T03:02:18.854Z,6.13
2018-12-11T03:03:18.724Z,6.14
2018-12-11T03:04:18.688Z,6.02
2018-12-11T03:05:18.713Z,6.09
2018-12-11T03:06:18.629Z,6.07
2018-12-11T03:07:18.797Z,6.07
2018-12-11T03:08:18.597Z,6.07
2018-12-11T03:09:18.525Z,6.05
2018-12-11T03:10:18.494Z,6.07
2018-12-11T03:11:18.455Z,6.06
2018-12-11T03:12:18.425Z,6.13
2018-12-11T03:13:18.423Z,6.13
2018-12-11T03:14:18.355Z,6.13
2018-12-11T03:15:18.324Z,6.09
2018-12-11T03:16:18.286Z,6.09
2018-12-11T03:17:18.251Z,6.07
2018-12-11T03:18:18.258Z,6.10
2018-12-11T03:19:18.185Z,6.07
2018-12-11T03:20:18.159Z,6.09
2018-12-11T03:21:18.113Z,6.07
2018-12-11T03:22:18.080Z,6.05
2018-12-11T03:23:18.122Z,6.07
2018-12-11T03:24:18.028Z,6.09
2018-12-11T03:25:17.988Z,6.05
2018-12-11T03:26:17.947Z,6.07
2018-12-11T03:27:17.915Z,6.05
2018-12-11T03:28:17.953Z,6.03
2018-12-11T03:29:17.856Z,5.89
2018-12-11T03:30:17.821Z,5.95
2018-12-11T03:31:17.779Z,6.00
2018-12-11T03:32:17.772Z,6.00
2018-12-11T03:33:17.755Z,5.98
2018-12-11T03:34:17.727Z,5.91
2018-12-11T03:35:17.655Z,5.92
2018-12-11T03:36:17.807Z,6.05
2018-12-11T03:37:18.244Z,5.91
2018-12-11T03:38:17.544Z,5.96
2018-12-11T03:39:17.617Z,5.91
2018-12-11T03:40:17.478Z,6.00
2018-12-11T03:41:17.453Z,5.99
2018-12-11T03:42:17.413Z,6.00
2018-12-11T03:43:17.384Z,5.92
2018-12-11T03:44:17.809Z,6.05
2018-12-11T03:45:17.313Z,5.96
2018-12-11T03:46:18.243Z,5.99
2018-12-11T03:47:17.244Z,6.05
2018-12-11T03:48:17.208Z,6.02
2018-12-11T03:49:17.366Z,6.03
2018-12-11T03:50:17.743Z,6.02
2018-12-11T03:51:17.137Z,6.05
2018-12-11T03:52:21.423Z,6.05
2018-12-11T03:53:17.744Z,6.07
2018-12-11T03:54:17.053Z,6.09
2018-12-11T03:55:16.978Z,6.07
2018-12-11T03:56:16.945Z,6.05
2018-12-11T03:57:16.907Z,6.05
2018-12-11T03:58:16.909Z,6.05
2018-12-11T03:59:16.890Z,6.03
2018-12-11T04:00:17.761Z,6.10
2018-12-11T04:01:16.829Z,6.07
2018-12-11T04:02:17.245Z,6.09
2018-12-11T04:03:16.710Z,6.05
2018-12-11T04:04:16.733Z,6.05
2018-12-11T04:05:17.241Z,6.05
2018-12-11T04:06:17.241Z,6.07
2018-12-11T04:07:17.246Z,6.07
2018-12-11T04:08:16.545Z,6.05
2018-12-11T04:09:16.803Z,6.09
2018-12-11T04:10:17.256Z,6.07
2018-12-11T04:11:17.245Z,6.07
2018-12-11T04:12:16.408Z,6.02
2018-12-11T04:13:16.457Z,6.07
2018-12-11T04:14:16.522Z,6.07
2018-12-11T04:15:16.350Z,6.05
2018-12-11T04:16:16.277Z,6.03
2018-12-11T04:17:16.243Z,5.91
2018-12-11T04:18:16.203Z,5.96
2018-12-11T04:19:16.174Z,6.02
2018-12-11T04:20:16.306Z,5.91
2018-12-11T04:21:16.169Z,5.91
2018-12-11T04:22:16.072Z,6.00
2018-12-11T04:23:16.746Z,5.98
2018-12-11T04:24:16.750Z,5.91
2018-12-11T04:25:16.030Z,5.88
2018-12-11T04:26:15.943Z,5.84
2018-12-11T04:27:15.924Z,5.88
2018-12-11T04:28:15.930Z,5.82
2018-12-11T04:29:15.855Z,5.85
2018-12-11T04:30:16.307Z,5.88
2018-12-11T04:31:15.773Z,5.85
2018-12-11T04:32:16.249Z,5.84
2018-12-11T04:33:16.245Z,5.88
2018-12-11T04:34:15.665Z,5.81
2018-12-11T04:35:15.701Z,5.89
2018-12-11T04:36:15.598Z,5.81
2018-12-11T04:37:15.562Z,5.81
2018-12-11T04:38:15.541Z,5.82
2018-12-11T04:39:15.497Z,5.84
2018-12-11T04:40:15.516Z,5.88
2018-12-11T04:41:15.427Z,5.84
2018-12-11T04:42:15.422Z,5.88
2018-12-11T04:43:15.415Z,5.84
2018-12-11T04:44:15.330Z,5.88
2018-12-11T04:45:15.299Z,5.87
2018-12-11T04:46:16.242Z,5.85
2018-12-11T04:47:15.232Z,5.87
2018-12-11T04:48:15.310Z,5.85
2018-12-11T04:49:15.163Z,5.88
2018-12-11T04:50:15.128Z,5.82
2018-12-11T04:51:15.095Z,5.84
2018-12-11T04:52:15.778Z,5.82
2018-12-11T04:53:15.299Z,5.92
2018-12-11T04:54:14.993Z,5.85
2018-12-11T04:55:15.753Z,5.82
2018-12-11T04:56:14.923Z,5.82
2018-12-11T04:57:14.896Z,5.85
2018-12-11T04:58:14.904Z,5.82
2018-12-11T04:59:14.826Z,5.78
2018-12-11T05:00:14.835Z,5.77
2018-12-11T05:01:14.770Z,5.82
2018-12-11T05:02:14.731Z,5.77
2018-12-11T05:03:14.744Z,5.82
2018-12-11T05:04:14.658Z,5.80
2018-12-11T05:05:14.626Z,5.82
2018-12-11T05:06:14.899Z,5.80
2018-12-11T05:07:14.558Z,5.80
2018-12-11T05:08:15.250Z,5.81
2018-12-11T05:09:14.490Z,5.82
2018-12-11T05:10:14.497Z,5.80
2018-12-11T05:11:14.425Z,5.82
2018-12-11T05:12:14.442Z,5.81
2018-12-11T05:13:14.356Z,5.82
2018-12-11T05:14:14.319Z,5.77
2018-12-11T05:15:14.285Z,5.78
2018-12-11T05:16:15.244Z,5.80
2018-12-11T05:17:14.264Z,5.80
2018-12-11T05:18:14.186Z,5.81
2018-12-11T05:19:14.147Z,5.80
2018-12-11T05:20:14.219Z,5.82
2018-12-11T05:21:14.143Z,5.84
2018-12-11T05:22:14.052Z,5.78
2018-12-11T05:23:14.744Z,5.78
2018-12-11T05:24:13.980Z,5.81
2018-12-11T05:25:13.994Z,5.80
2018-12-11T05:26:14.749Z,5.75
2018-12-11T05:27:14.796Z,5.81
2018-12-11T05:28:13.847Z,5.88
2018-12-11T05:29:13.860Z,5.78
2018-12-11T05:30:13.832Z,5.84
2018-12-11T05:31:13.767Z,5.82
2018-12-11T05:32:13.711Z,5.91
2018-12-11T05:33:13.724Z,5.95
2018-12-11T05:34:13.654Z,5.84
2018-12-11T05:35:14.251Z,5.92
2018-12-11T05:36:14.278Z,5.89
2018-12-11T05:37:13.847Z,5.82
2018-12-11T05:38:13.505Z,5.84
2018-12-11T05:39:13.482Z,5.84
2018-12-11T05:40:13.442Z,5.92
2018-12-11T05:41:13.405Z,5.92
2018-12-11T05:42:13.428Z,5.92
2018-12-11T05:43:13.340Z,5.95
2018-12-11T05:44:13.350Z,5.96
2018-12-11T05:45:13.301Z,5.95
2018-12-11T05:46:13.242Z,5.88
2018-12-11T05:47:13.212Z,5.95
2018-12-11T05:48:13.221Z,5.95
2018-12-11T05:49:13.211Z,5.89
2018-12-11T05:50:13.120Z,5.91
2018-12-11T05:51:13.096Z,5.91
2018-12-11T05:52:13.038Z,5.88
2018-12-11T05:53:13.010Z,5.88
2018-12-11T05:54:13.017Z,5.88
2018-12-11T05:55:12.933Z,5.91
2018-12-11T05:56:12.907Z,5.95
2018-12-11T05:57:12.877Z,6.00
2018-12-11T05:58:12.883Z,5.95
2018-12-11T05:59:12.840Z,6.02
2018-12-11T06:00:12.834Z,5.99
2018-12-11T06:01:12.777Z,6.00
2018-12-11T06:02:12.707Z,5.99
2018-12-11T06:03:13.250Z,5.99
2018-12-11T06:04:12.804Z,5.92
2018-12-11T06:05:13.253Z,6.02
2018-12-11T06:06:12.568Z,5.98
2018-12-11T06:07:12.532Z,6.02
2018-12-11T06:08:12.539Z,5.96
2018-12-11T06:09:12.503Z,5.89
2018-12-11T06:10:12.429Z,5.92
2018-12-11T06:11:12.395Z,5.91
2018-12-11T06:12:12.412Z,6.00
2018-12-11T06:13:12.358Z,5.96
2018-12-11T06:14:12.295Z,6.00
2018-12-11T06:15:12.324Z,5.96
2018-12-11T06:16:12.229Z,6.05
2018-12-11T06:17:12.194Z,5.95
2018-12-11T06:18:12.163Z,5.99
2018-12-11T06:19:12.128Z,5.92
2018-12-11T06:20:12.136Z,5.98
2018-12-11T06:21:12.062Z,6.00
2018-12-11T06:22:12.029Z,5.95
2018-12-11T06:23:11.996Z,5.91
2018-12-11T06:24:11.956Z,5.96
2018-12-11T06:25:11.972Z,6.03
2018-12-11T06:26:11.891Z,6.00
2018-12-11T06:27:11.906Z,5.89
2018-12-11T06:28:11.822Z,5.96
2018-12-11T06:29:11.790Z,5.89
2018-12-11T06:30:11.753Z,6.02
2018-12-11T06:31:11.774Z,5.87
2018-12-11T06:32:11.690Z,5.96
2018-12-11T06:33:11.693Z,6.00
2018-12-11T06:34:11.628Z,5.88
2018-12-11T06:35:11.587Z,5.87
2018-12-11T06:36:11.606Z,5.92
2018-12-11T06:37:11.515Z,5.96
2018-12-11T06:38:11.481Z,6.02
2018-12-11T06:39:11.453Z,5.99
2018-12-11T06:40:11.421Z,5.98
2018-12-11T06:41:11.426Z,6.00
2018-12-11T06:42:11.430Z,6.00
2018-12-11T06:43:11.364Z,5.95
2018-12-11T06:44:11.289Z,5.91
2018-12-11T06:45:11.246Z,6.00
2018-12-11T06:46:11.225Z,5.87
2018-12-11T06:47:11.223Z,5.91
2018-12-11T06:48:11.151Z,5.95
2018-12-11T06:49:11.122Z,5.88
2018-12-11T06:50:11.075Z,5.88
2018-12-11T06:51:11.051Z,5.99
2018-12-11T06:52:11.054Z,5.95
2018-12-11T06:53:11.021Z,5.88
2018-12-11T06:54:10.986Z,5.84
2018-12-11T06:55:10.938Z,5.89
2018-12-11T06:56:10.917Z,5.81
2018-12-11T06:57:10.885Z,5.80
2018-12-11T06:58:10.857Z,5.81
2018-12-11T06:59:10.777Z,5.78
2018-12-11T07:00:10.741Z,5.60
2018-12-11T07:01:10.747Z,5.63
2018-12-11T07:02:10.674Z,5.69
2018-12-11T07:03:10.644Z,5.63
2018-12-11T07:04:10.610Z,5.64
2018-12-11T07:05:10.576Z,5.64
2018-12-11T07:06:10.582Z,5.63
2018-12-11T07:07:10.505Z,5.54
2018-12-11T07:08:10.480Z,5.57
2018-12-11T07:09:10.479Z,5.63
2018-12-11T07:10:10.447Z,5.57
2018-12-11T07:11:10.385Z,5.62
2018-12-11T07:12:10.333Z,5.62
2018-12-11T07:13:10.302Z,5.54
2018-12-11T07:14:10.310Z,5.51
2018-12-11T07:15:10.232Z,5.57
2018-12-11T07:16:10.199Z,5.44
2018-12-11T07:17:10.227Z,5.45
2018-12-11T07:18:10.133Z,5.34
2018-12-11T07:19:10.110Z,5.36
2018-12-11T07:20:11.164Z,5.37
2018-12-11T07:21:10.032Z,5.36
2018-12-11T07:22:10.309Z,5.30
2018-12-11T07:23:09.964Z,5.24
2018-12-11T07:24:10.761Z,5.30
2018-12-11T07:25:09.934Z,5.30
2018-12-11T07:26:09.878Z,5.26
2018-12-11T07:27:10.781Z,5.20
2018-12-11T07:28:09.882Z,5.21
2018-12-11T07:29:09.755Z,5.18
2018-12-11T07:30:09.760Z,5.28
2018-12-11T07:31:09.735Z,5.26
2018-12-11T07:32:10.257Z,5.24
2018-12-11T07:33:10.260Z,5.12
2018-12-11T07:34:09.821Z,5.12
2018-12-11T07:35:10.266Z,5.09
2018-12-11T07:36:09.515Z,5.15
2018-12-11T07:37:09.491Z,5.18
2018-12-11T07:38:09.503Z,5.12
2018-12-11T07:39:09.412Z,5.12
2018-12-11T07:40:09.375Z,5.23
2018-12-11T07:41:09.341Z,5.20
2018-12-11T07:42:09.313Z,5.27
2018-12-11T07:43:09.332Z,5.27
2018-12-11T07:44:09.259Z,5.31
2018-12-11T07:45:09.208Z,5.28
2018-12-11T07:46:09.175Z,5.36
2018-12-11T07:47:09.764Z,5.39
2018-12-11T07:48:09.144Z,5.39
2018-12-11T07:49:09.064Z,5.39
2018-12-11T07:50:09.119Z,5.36
2018-12-11T07:51:08.996Z,5.37
2018-12-11T07:52:08.977Z,5.37
2018-12-11T07:53:08.941Z,5.39
2018-12-11T07:54:08.891Z,5.34
2018-12-11T07:55:08.921Z,5.42
2018-12-11T07:56:08.824Z,5.36
2018-12-11T07:57:08.797Z,5.37
2018-12-11T07:58:08.777Z,5.44
2018-12-11T07:59:08.732Z,5.45
2018-12-11T08:00:08.738Z,5.34
2018-12-11T08:01:08.659Z,5.36
2018-12-11T08:02:08.620Z,5.44
2018-12-11T08:03:08.588Z,5.37
2018-12-11T08:04:08.571Z,5.39
2018-12-11T08:05:08.586Z,5.37
2018-12-11T08:06:08.488Z,5.44
2018-12-11T08:07:08.460Z,5.41
2018-12-11T08:08:08.418Z,5.45
2018-12-11T08:09:08.385Z,5.49
2018-12-11T08:10:08.397Z,5.51
2018-12-11T08:11:08.315Z,5.52
2018-12-11T08:12:08.509Z,5.51
2018-12-11T08:13:08.254Z,5.52
2018-12-11T08:14:08.220Z,5.55
2018-12-11T08:15:08.218Z,5.51
2018-12-11T08:16:08.184Z,5.55
2018-12-11T08:17:08.226Z,5.60
2018-12-11T08:18:08.086Z,5.64
2018-12-11T08:19:08.063Z,5.66
2018-12-11T08:20:08.010Z,5.66
2018-12-11T08:21:08.026Z,5.62
2018-12-11T08:22:07.955Z,5.62
2018-12-11T08:23:07.913Z,5.59
2018-12-11T08:24:07.913Z,5.60
2018-12-11T08:25:07.841Z,5.60
2018-12-11T08:26:07.857Z,5.63
2018-12-11T08:27:07.814Z,5.72
2018-12-11T08:28:07.745Z,5.67
2018-12-11T08:29:07.751Z,5.72
2018-12-11T08:30:07.677Z,5.69
2018-12-11T08:31:07.686Z,5.66
2018-12-11T08:32:07.624Z,5.64
2018-12-11T08:33:07.574Z,5.63
2018-12-11T08:34:07.597Z,5.62
2018-12-11T08:35:08.272Z,5.82
2018-12-11T08:36:07.518Z,5.72
2018-12-11T08:37:08.269Z,5.75
2018-12-11T08:38:07.411Z,5.78
2018-12-11T08:39:08.279Z,5.81
2018-12-11T08:40:07.346Z,5.77
2018-12-11T08:41:07.390Z,5.78
2018-12-11T08:42:07.265Z,5.82
2018-12-11T08:43:07.242Z,5.77
2018-12-11T08:44:07.200Z,5.78
2018-12-11T08:45:07.171Z,5.77
2018-12-11T08:46:07.200Z,5.80
2018-12-11T08:47:07.099Z,5.81
2018-12-11T08:48:07.071Z,5.82
2018-12-11T08:49:07.723Z,5.77
2018-12-11T08:50:07.007Z,5.80
2018-12-11T08:51:07.018Z,5.81
2018-12-11T08:52:06.980Z,5.87
2018-12-11T08:53:06.897Z,5.78
2018-12-11T08:54:06.864Z,5.85
2018-12-11T08:55:07.771Z,5.89
2018-12-11T08:56:06.848Z,5.84
2018-12-11T08:57:07.286Z,5.85
2018-12-11T08:58:06.731Z,5.85
2018-12-11T08:59:07.007Z,5.87
2018-12-11T09:00:06.668Z,5.88
2018-12-11T09:01:06.692Z,5.84
2018-12-11T09:02:06.603Z,5.91
2018-12-11T09:03:06.564Z,5.95
2018-12-11T09:04:06.531Z,5.88
2018-12-11T09:05:07.273Z,6.02
2018-12-11T09:06:06.521Z,5.99
2018-12-11T09:07:07.708Z,5.92
2018-12-11T09:08:06.397Z,5.99
2018-12-11T09:09:06.364Z,5.95
2018-12-11T09:10:06.331Z,5.89
2018-12-11T09:11:06.313Z,5.91
2018-12-11T09:12:06.306Z,5.92
2018-12-11T09:13:06.268Z,5.95
2018-12-11T09:14:06.212Z,5.89
2018-12-11T09:15:06.170Z,5.92
2018-12-11T09:16:06.133Z,6.02
2018-12-11T09:17:10.255Z,5.92
2018-12-11T09:18:06.076Z,6.00
2018-12-11T09:19:06.035Z,5.87
2018-12-11T09:20:05.996Z,5.99
2018-12-11T09:21:05.970Z,6.00
2018-12-11T09:22:06.073Z,5.95
2018-12-11T09:23:05.895Z,5.98
2018-12-11T09:24:05.915Z,5.88
2018-12-11T09:25:05.832Z,5.88
2018-12-11T09:26:05.840Z,5.95
2018-12-11T09:27:05.766Z,5.95
2018-12-11T09:28:11.032Z,5.98
2018-12-11T09:29:06.275Z,5.98
2018-12-11T09:30:06.296Z,5.91
2018-12-11T09:31:05.847Z,5.89
2018-12-11T09:32:05.604Z,5.96
2018-12-11T09:33:05.579Z,6.02
2018-12-11T09:34:05.568Z,6.02
2018-12-11T09:35:05.503Z,6.02
2018-12-11T09:36:05.461Z,6.06
2018-12-11T09:37:06.270Z,6.09
2018-12-11T09:38:05.440Z,6.10
2018-12-11T09:39:05.383Z,6.05
2018-12-11T09:40:05.347Z,6.03
2018-12-11T09:41:05.345Z,6.17
2018-12-11T09:42:07.408Z,6.14
2018-12-11T09:43:05.234Z,6.25
2018-12-11T09:44:05.228Z,6.13
2018-12-11T09:45:05.162Z,6.15
2018-12-11T09:46:05.187Z,6.13
2018-12-11T09:47:05.097Z,6.21
2018-12-11T09:48:05.103Z,6.14
2018-12-11T09:49:05.029Z,6.06
2018-12-11T09:50:05.067Z,6.15
2018-12-11T09:51:04.976Z,6.17
2018-12-11T09:52:04.940Z,6.17
2018-12-11T09:53:04.898Z,6.20
2018-12-11T09:54:04.917Z,6.15
2018-12-11T09:55:04.875Z,6.17
2018-12-11T09:56:05.776Z,6.29
2018-12-11T09:57:04.769Z,6.24
2018-12-11T09:58:04.765Z,6.25
2018-12-11T09:59:04.704Z,6.29
2018-12-11T10:00:04.716Z,6.26
2018-12-11T10:01:04.637Z,6.33
2018-12-11T10:02:04.598Z,6.26
2018-12-11T10:03:04.614Z,6.28
2018-12-11T10:04:04.532Z,6.29
2018-12-11T10:05:04.839Z,6.34
2018-12-11T10:06:04.487Z,6.21
2018-12-11T10:07:05.279Z,6.29
2018-12-11T10:08:04.421Z,6.25
2018-12-11T10:09:04.380Z,6.31
2018-12-11T10:10:04.850Z,6.31
2018-12-11T10:11:04.330Z,6.21
2018-12-11T10:12:04.289Z,6.26
2018-12-11T10:13:04.283Z,6.31
2018-12-11T10:14:04.205Z,6.26
2018-12-11T10:15:04.190Z,6.24
2018-12-11T10:16:04.185Z,6.33
2018-12-11T10:17:04.105Z,6.28
2018-12-11T10:18:04.095Z,6.29
2018-12-11T10:19:04.040Z,6.33
2018-12-11T10:20:05.422Z,6.28
2018-12-11T10:21:04.018Z,6.29
2018-12-11T10:22:03.938Z,6.34
2018-12-11T10:23:03.952Z,6.34
2018-12-11T10:24:03.875Z,6.31
2018-12-11T10:25:03.839Z,6.25
2018-12-11T10:26:03.867Z,6.20
2018-12-11T10:27:03.782Z,6.31
2018-12-11T10:28:03.744Z,6.31
2018-12-11T10:29:03.709Z,6.20
2018-12-11T10:30:03.702Z,6.21
2018-12-11T10:31:03.693Z,6.21
2018-12-11T10:32:03.609Z,6.15
2018-12-11T10:33:03.631Z,6.24
2018-12-11T10:34:03.553Z,6.20
2018-12-11T10:35:03.517Z,6.18
2018-12-11T10:36:03.489Z,6.26
2018-12-11T10:37:03.448Z,6.18
2018-12-11T10:38:03.458Z,6.10
2018-12-11T10:39:03.398Z,6.17
2018-12-11T10:40:04.296Z,6.10
2018-12-11T10:41:03.318Z,6.21
2018-12-11T10:42:03.503Z,6.21
2018-12-11T10:43:03.779Z,6.14
2018-12-11T10:44:03.222Z,6.25
2018-12-11T10:45:03.190Z,6.24
2018-12-11T10:46:03.147Z,6.34
2018-12-11T10:47:03.163Z,6.36
2018-12-11T10:48:03.123Z,6.31
2018-12-11T10:49:03.092Z,6.20
2018-12-11T10:50:03.015Z,6.31
2018-12-11T10:51:02.990Z,6.34
2018-12-11T10:52:02.997Z,6.26
2018-12-11T10:53:02.917Z,6.24
2018-12-11T10:54:03.334Z,6.17
2018-12-11T10:55:02.850Z,6.17
2018-12-11T10:56:02.817Z,6.07
2018-12-11T10:57:02.782Z,6.09
2018-12-11T10:58:02.811Z,6.02
2018-12-11T10:59:02.729Z,5.95
2018-12-11T11:00:02.689Z,6.02
2018-12-11T11:01:03.291Z,5.88
2018-12-11T11:02:03.370Z,5.82
2018-12-11T11:03:02.656Z,5.85
2018-12-11T11:04:02.950Z,5.84
2018-12-11T11:05:02.571Z,5.82
2018-12-11T11:06:02.491Z,5.78
2018-12-11T11:07:02.457Z,5.77
2018-12-11T11:08:02.424Z,5.81
2018-12-11T11:09:02.429Z,5.84
2018-12-11T11:10:02.371Z,5.85
2018-12-11T11:11:02.383Z,5.91
2018-12-11T11:12:02.293Z,5.85
2018-12-11T11:13:02.385Z,5.91
2018-12-11T11:14:02.259Z,5.88
2018-12-11T11:15:02.212Z,5.91
2018-12-11T11:16:02.786Z,5.95
2018-12-11T11:17:02.125Z,5.87
2018-12-11T11:18:02.143Z,5.84
2018-12-11T11:19:02.061Z,5.84
2018-12-11T11:20:02.027Z,5.80
2018-12-11T11:21:02.058Z,5.81
2018-12-11T11:22:01.981Z,5.81
2018-12-11T11:23:01.977Z,5.78
2018-12-11T11:24:01.890Z,5.84
2018-12-11T11:25:02.788Z,5.82
2018-12-11T11:26:01.828Z,5.78
2018-12-11T11:27:01.836Z,5.77
2018-12-11T11:28:01.765Z,5.82
2018-12-11T11:29:01.742Z,5.78
2018-12-11T11:30:01.750Z,5.81
2018-12-11T11:31:01.663Z,5.84
2018-12-11T11:32:01.682Z,5.84
2018-12-11T11:33:01.591Z,5.80
2018-12-11T11:34:01.564Z,5.85
2018-12-11T11:35:01.526Z,5.88
2018-12-11T11:36:01.493Z,5.77
2018-12-11T11:37:01.507Z,5.84
2018-12-11T11:38:01.429Z,5.84
2018-12-11T11:39:01.395Z,5.82
2018-12-11T11:40:01.850Z,5.78
2018-12-11T11:41:01.330Z,5.78
2018-12-11T11:42:01.503Z,5.80
2018-12-11T11:43:01.269Z,5.85
2018-12-11T11:44:01.801Z,5.77
2018-12-11T11:45:01.198Z,5.81
2018-12-11T11:46:01.178Z,5.73
2018-12-11T11:47:01.188Z,5.78
2018-12-11T11:48:01.121Z,5.73
2018-12-11T11:49:01.062Z,5.60
2018-12-11T11:50:01.026Z,5.63
2018-12-11T11:51:00.998Z,5.62
2018-12-11T11:52:01.008Z,5.46
2018-12-11T11:53:00.968Z,5.51
2018-12-11T11:54:00.897Z,5.46
2018-12-11T11:55:00.862Z,5.44
2018-12-11T11:56:00.830Z,5.48
2018-12-11T11:57:00.792Z,5.52
2018-12-11T11:58:00.816Z,5.48
2018-12-11T11:59:00.723Z,5.45
2018-12-11T12:00:00.692Z,5.48
2018-12-11T12:01:00.658Z,5.39
2018-12-11T12:02:00.630Z,5.46
2018-12-11T12:03:00.629Z,5.49
2018-12-11T12:04:00.561Z,5.48
2018-12-11T12:05:00.537Z,5.46
2018-12-11T12:06:00.548Z,5.44
2018-12-11T12:07:00.503Z,5.42
2018-12-11T12:08:01.296Z,5.36
2018-12-11T12:09:00.438Z,5.36
2018-12-11T12:10:00.401Z,5.31
2018-12-11T12:11:00.379Z,5.36
2018-12-11T12:12:00.311Z,5.36
2018-12-11T12:13:00.271Z,5.36
2018-12-11T12:14:00.228Z,5.36
2018-12-11T12:15:00.199Z,5.39
2018-12-11T12:16:00.210Z,5.39
2018-12-11T12:17:00.126Z,5.39
2018-12-11T12:18:00.189Z,5.39
2018-12-11T12:19:00.059Z,5.39
2018-12-11T12:20:00.081Z,5.41
2018-12-11T12:20:59.995Z,5.41
2018-12-11T12:21:59.955Z,5.39
2018-12-11T12:22:59.929Z,5.34
2018-12-11T12:23:59.887Z,5.34
2018-12-11T12:24:59.925Z,5.39
2018-12-11T12:25:59.841Z,5.39
2018-12-11T12:27:00.294Z,5.36
2018-12-11T12:27:59.782Z,5.41
2018-12-11T12:28:59.764Z,5.45
2018-12-11T12:29:59.707Z,5.36
2018-12-11T12:30:59.863Z,5.41
2018-12-11T12:31:59.621Z,5.42
2018-12-11T12:32:59.595Z,5.48
2018-12-11T12:33:59.567Z,5.42
2018-12-11T12:34:59.526Z,5.44
2018-12-11T12:35:59.537Z,5.52
2018-12-11T12:36:59.508Z,5.48
2018-12-11T12:37:59.425Z,5.44
2018-12-11T12:38:59.406Z,5.51
2018-12-11T12:39:59.400Z,5.54
2018-12-11T12:40:59.377Z,5.51
2018-12-11T12:41:59.309Z,5.55
2018-12-11T12:42:59.257Z,5.49
2018-12-11T12:43:59.228Z,5.49
2018-12-11T12:44:59.354Z,5.52
2018-12-11T12:45:59.162Z,5.51
2018-12-11T12:46:59.132Z,5.57
2018-12-11T12:47:59.148Z,5.49
2018-12-11T12:48:59.797Z,5.54
2018-12-11T12:49:59.025Z,5.57
2018-12-11T12:50:58.991Z,5.54
2018-12-11T12:51:58.951Z,5.44
2018-12-11T12:52:59.013Z,5.57
2018-12-11T12:53:58.892Z,5.52
2018-12-11T12:54:58.859Z,5.57
2018-12-11T12:55:58.825Z,5.54
2018-12-11T12:56:58.857Z,5.52
2018-12-11T12:57:58.821Z,5.49
2018-12-11T12:58:58.761Z,5.49
2018-12-11T12:59:58.682Z,5.51
2018-12-11T13:00:59.292Z,5.57
2018-12-11T13:01:58.616Z,5.54
2018-12-11T13:03:00.038Z,5.49
2018-12-11T13:03:58.551Z,5.49
2018-12-11T13:04:58.519Z,5.57
2018-12-11T13:05:58.487Z,5.51
2018-12-11T13:06:58.489Z,5.54
2018-12-11T13:07:58.454Z,5.49
2018-12-11T13:08:58.405Z,5.54
2018-12-11T13:09:58.398Z,5.49
2018-12-11T13:10:58.319Z,5.48
2018-12-11T13:11:58.282Z,5.39
2018-12-11T13:12:58.251Z,5.45
2018-12-11T13:13:58.221Z,5.37
2018-12-11T13:14:58.272Z,5.36
2018-12-11T13:15:58.180Z,5.39
2018-12-11T13:16:58.110Z,5.36
2018-12-11T13:17:58.127Z,5.39